sensor_id;sensor_type;location;lat;lon;timestamp;pressure;altitude;pressure_sealevel;temperature
70415;BMP280;57837;52.064;113.478;2023-01-13T00:01:22;95571.41;;;-20.84
70415;BMP280;57837;52.064;113.478;2023-01-13T00:04:26;95593.91;;;-20.87
70415;BMP280;57837;52.064;113.478;2023-01-13T00:07:29;95595.09;;;-20.98
70415;BMP280;57837;52.064;113.478;2023-01-13T00:10:33;95593.91;;;-21.02
70415;BMP280;57837;52.064;113.478;2023-01-13T00:13:37;95601.72;;;-21.13
70415;BMP280;57837;52.064;113.478;2023-01-13T00:16:41;95606.81;;;-21.30
70415;BMP280;57837;52.064;113.478;2023-01-13T00:19:44;95600.75;;;-21.49
70415;BMP280;57837;52.064;113.478;2023-01-13T00:22:49;95614.88;;;-21.51
70415;BMP280;57837;52.064;113.478;2023-01-13T00:25:55;95612.94;;;-21.41
70415;BMP280;57837;52.064;113.478;2023-01-13T00:28:59;95626.06;;;-21.48
70415;BMP280;57837;52.064;113.478;2023-01-13T00:32:04;95633.00;;;-21.37
70415;BMP280;57837;52.064;113.478;2023-01-13T00:35:08;95629.53;;;-21.28
70415;BMP280;57837;52.064;113.478;2023-01-13T00:38:12;95623.16;;;-21.07
70415;BMP280;57837;52.064;113.478;2023-01-13T00:41:18;95626.63;;;-21.02
70415;BMP280;57837;52.064;113.478;2023-01-13T00:44:22;95625.38;;;-21.12
70415;BMP280;57837;52.064;113.478;2023-01-13T00:47:26;95628.22;;;-21.09
70415;BMP280;57837;52.064;113.478;2023-01-13T00:50:29;95622.41;;;-21.08
70415;BMP280;57837;52.064;113.478;2023-01-13T00:53:36;95631.63;;;-20.95
70415;BMP280;57837;52.064;113.478;2023-01-13T00:56:40;95631.63;;;-20.95
70415;BMP280;57837;52.064;113.478;2023-01-13T00:59:43;95634.56;;;-20.85
70415;BMP280;57837;52.064;113.478;2023-01-13T01:02:48;95634.03;;;-20.66
70415;BMP280;57837;52.064;113.478;2023-01-13T01:05:52;95637.59;;;-20.25
70415;BMP280;57837;52.064;113.478;2023-01-13T01:08:55;95633.13;;;-19.94
70415;BMP280;57837;52.064;113.478;2023-01-13T01:12:00;95640.44;;;-19.79
70415;BMP280;57837;52.064;113.478;2023-01-13T01:15:05;95649.47;;;-19.58
70415;BMP280;57837;52.064;113.478;2023-01-13T01:18:12;95656.50;;;-19.27
70415;BMP280;57837;52.064;113.478;2023-01-13T01:21:15;95660.28;;;-19.24
70415;BMP280;57837;52.064;113.478;2023-01-13T01:24:19;95657.28;;;-19.13
70415;BMP280;57837;52.064;113.478;2023-01-13T01:27:23;95660.94;;;-19.02
70415;BMP280;57837;52.064;113.478;2023-01-13T01:30:27;95663.31;;;-18.81
70415;BMP280;57837;52.064;113.478;2023-01-13T01:33:31;95670.91;;;-18.76
70415;BMP280;57837;52.064;113.478;2023-01-13T01:36:34;95681.78;;;-18.50
70415;BMP280;57837;52.064;113.478;2023-01-13T01:39:38;95668.69;;;-18.51
70415;BMP280;57837;52.064;113.478;2023-01-13T01:42:42;95656.19;;;-18.36
70415;BMP280;57837;52.064;113.478;2023-01-13T01:46:04;95649.75;;;-18.37
70415;BMP280;57837;52.064;113.478;2023-01-13T01:49:24;95646.34;;;-18.16
70415;BMP280;57837;52.064;113.478;2023-01-13T01:52:57;95656.59;;;-17.93
70415;BMP280;57837;52.064;113.478;2023-01-13T01:56:00;95648.94;;;-17.52
70415;BMP280;57837;52.064;113.478;2023-01-13T01:59:04;95653.81;;;-17.25
70415;BMP280;57837;52.064;113.478;2023-01-13T02:02:08;95652.66;;;-17.16
70415;BMP280;57837;52.064;113.478;2023-01-13T02:05:12;95669.56;;;-17.06
70415;BMP280;57837;52.064;113.478;2023-01-13T02:08:17;95655.44;;;-16.99
70415;BMP280;57837;52.064;113.478;2023-01-13T02:11:35;95653.25;;;-16.76
70415;BMP280;57837;52.064;113.478;2023-01-13T02:15:18;95642.59;;;-16.83
70415;BMP280;57837;52.064;113.478;2023-01-13T02:26:11;95651.38;;;-16.87
70415;BMP280;57837;52.064;113.478;2023-01-13T02:39:02;95661.03;;;-16.16
70415;BMP280;57837;52.064;113.478;2023-01-13T02:42:11;95660.53;;;-15.99
70415;BMP280;57837;52.064;113.478;2023-01-13T02:45:43;95658.06;;;-15.81
70415;BMP280;57837;52.064;113.478;2023-01-13T02:48:49;95656.41;;;-15.62
70415;BMP280;57837;52.064;113.478;2023-01-13T02:52:01;95662.75;;;-15.66
70415;BMP280;57837;52.064;113.478;2023-01-13T02:55:12;95657.97;;;-15.49
70415;BMP280;57837;52.064;113.478;2023-01-13T02:58:21;95657.84;;;-15.55
70415;BMP280;57837;52.064;113.478;2023-01-13T03:01:27;95650.34;;;-15.48
70415;BMP280;57837;52.064;113.478;2023-01-13T03:11:09;95648.69;;;-15.72
70415;BMP280;57837;52.064;113.478;2023-01-13T03:17:35;95645.88;;;-15.39
70415;BMP280;57837;52.064;113.478;2023-01-13T03:20:48;95651.16;;;-15.17
70415;BMP280;57837;52.064;113.478;2023-01-13T03:24:05;95651.88;;;-14.99
70415;BMP280;57837;52.064;113.478;2023-01-13T03:30:39;95638.47;;;-15.28
70415;BMP280;57837;52.064;113.478;2023-01-13T03:33:47;95641.22;;;-15.17
70415;BMP280;57837;52.064;113.478;2023-01-13T03:36:53;95646.88;;;-15.10
70415;BMP280;57837;52.064;113.478;2023-01-13T03:40:01;95642.91;;;-15.00
70415;BMP280;57837;52.064;113.478;2023-01-13T03:43:10;95634.47;;;-15.10
70415;BMP280;57837;52.064;113.478;2023-01-13T03:50:29;95643.50;;;-15.16
70415;BMP280;57837;52.064;113.478;2023-01-13T03:53:46;95641.28;;;-15.06
70415;BMP280;57837;52.064;113.478;2023-01-13T03:56:59;95635.78;;;-14.96
70415;BMP280;57837;52.064;113.478;2023-01-13T04:00:04;95628.16;;;-15.24
70415;BMP280;57837;52.064;113.478;2023-01-13T04:03:37;95625.19;;;-15.51
70415;BMP280;57837;52.064;113.478;2023-01-13T04:06:53;95623.72;;;-15.59
70415;BMP280;57837;52.064;113.478;2023-01-13T04:10:00;95621.13;;;-15.64
70415;BMP280;57837;52.064;113.478;2023-01-13T04:13:07;95616.75;;;-15.62
70415;BMP280;57837;52.064;113.478;2023-01-13T04:16:13;95607.56;;;-15.62
70415;BMP280;57837;52.064;113.478;2023-01-13T04:19:16;95617.72;;;-15.63
70415;BMP280;57837;52.064;113.478;2023-01-13T04:22:20;95613.69;;;-15.64
70415;BMP280;57837;52.064;113.478;2023-01-13T04:25:24;95615.00;;;-15.62
70415;BMP280;57837;52.064;113.478;2023-01-13T04:28:27;95613.25;;;-15.61
70415;BMP280;57837;52.064;113.478;2023-01-13T04:31:30;95614.16;;;-15.92
70415;BMP280;57837;52.064;113.478;2023-01-13T04:34:34;95604.72;;;-16.02
70415;BMP280;57837;52.064;113.478;2023-01-13T04:37:39;95596.16;;;-15.88
70415;BMP280;57837;52.064;113.478;2023-01-13T04:40:42;95595.56;;;-16.01
70415;BMP280;57837;52.064;113.478;2023-01-13T04:43:45;95591.56;;;-15.84
70415;BMP280;57837;52.064;113.478;2023-01-13T04:46:48;95584.50;;;-15.80
70415;BMP280;57837;52.064;113.478;2023-01-13T04:49:51;95586.69;;;-15.72
70415;BMP280;57837;52.064;113.478;2023-01-13T04:52:55;95580.41;;;-15.75
70415;BMP280;57837;52.064;113.478;2023-01-13T04:55:58;95578.97;;;-15.64
70415;BMP280;57837;52.064;113.478;2023-01-13T04:59:02;95581.97;;;-15.44
70415;BMP280;57837;52.064;113.478;2023-01-13T05:02:06;95582.47;;;-15.54
70415;BMP280;57837;52.064;113.478;2023-01-13T05:05:12;95571.47;;;-15.94
70415;BMP280;57837;52.064;113.478;2023-01-13T05:08:15;95573.59;;;-15.98
70415;BMP280;57837;52.064;113.478;2023-01-13T05:11:19;95562.75;;;-15.97
70415;BMP280;57837;52.064;113.478;2023-01-13T05:14:41;95570.56;;;-16.00
70415;BMP280;57837;52.064;113.478;2023-01-13T05:18:03;95565.06;;;-15.84
70415;BMP280;57837;52.064;113.478;2023-01-13T05:21:07;95559.56;;;-15.86
70415;BMP280;57837;52.064;113.478;2023-01-13T05:24:31;95563.06;;;-15.93
70415;BMP280;57837;52.064;113.478;2023-01-13T05:27:55;95550.69;;;-15.93
70415;BMP280;57837;52.064;113.478;2023-01-13T05:30:59;95549.53;;;-15.91
70415;BMP280;57837;52.064;113.478;2023-01-13T05:34:03;95553.50;;;-15.90
70415;BMP280;57837;52.064;113.478;2023-01-13T05:37:06;95545.78;;;-16.00
70415;BMP280;57837;52.064;113.478;2023-01-13T05:40:15;95541.44;;;-16.04
70415;BMP280;57837;52.064;113.478;2023-01-13T05:43:37;95537.84;;;-16.09
70415;BMP280;57837;52.064;113.478;2023-01-13T05:46:40;95540.06;;;-16.00
70415;BMP280;57837;52.064;113.478;2023-01-13T05:49:45;95540.06;;;-15.82
70415;BMP280;57837;52.064;113.478;2023-01-13T05:52:48;95536.97;;;-15.96
70415;BMP280;57837;52.064;113.478;2023-01-13T05:55:52;95538.38;;;-16.25
70415;BMP280;57837;52.064;113.478;2023-01-13T05:58:56;95534.97;;;-16.05
70415;BMP280;57837;52.064;113.478;2023-01-13T06:01:59;95525.44;;;-16.09
70415;BMP280;57837;52.064;113.478;2023-01-13T06:05:03;95523.78;;;-16.15
70415;BMP280;57837;52.064;113.478;2023-01-13T06:08:07;95530.53;;;-15.97
70415;BMP280;57837;52.064;113.478;2023-01-13T06:11:10;95534.34;;;-16.01
70415;BMP280;57837;52.064;113.478;2023-01-13T06:14:14;95525.28;;;-16.07
70415;BMP280;57837;52.064;113.478;2023-01-13T06:17:17;95525.66;;;-16.28
70415;BMP280;57837;52.064;113.478;2023-01-13T06:20:21;95530.25;;;-16.32
70415;BMP280;57837;52.064;113.478;2023-01-13T06:23:24;95523.34;;;-16.23
70415;BMP280;57837;52.064;113.478;2023-01-13T06:26:30;95516.50;;;-16.28
70415;BMP280;57837;52.064;113.478;2023-01-13T06:29:37;95513.47;;;-16.30
70415;BMP280;57837;52.064;113.478;2023-01-13T06:32:44;95514.22;;;-16.29
70415;BMP280;57837;52.064;113.478;2023-01-13T06:35:53;95515.69;;;-16.22
70415;BMP280;57837;52.064;113.478;2023-01-13T06:39:00;95508.06;;;-16.20
70415;BMP280;57837;52.064;113.478;2023-01-13T06:42:04;95507.09;;;-16.19
70415;BMP280;57837;52.064;113.478;2023-01-13T06:45:28;95514.72;;;-16.02
70415;BMP280;57837;52.064;113.478;2023-01-13T06:48:33;95517.69;;;-15.94
70415;BMP280;57837;52.064;113.478;2023-01-13T06:51:37;95513.03;;;-16.02
70415;BMP280;57837;52.064;113.478;2023-01-13T06:54:41;95521.53;;;-15.98
70415;BMP280;57837;52.064;113.478;2023-01-13T06:57:49;95522.28;;;-15.97
70415;BMP280;57837;52.064;113.478;2023-01-13T07:00:52;95527.09;;;-16.02
70415;BMP280;57837;52.064;113.478;2023-01-13T07:03:55;95521.53;;;-16.16
70415;BMP280;57837;52.064;113.478;2023-01-13T07:06:59;95524.91;;;-16.29
70415;BMP280;57837;52.064;113.478;2023-01-13T07:10:03;95523.06;;;-16.58
70415;BMP280;57837;52.064;113.478;2023-01-13T07:13:07;95523.00;;;-16.52
70415;BMP280;57837;52.064;113.478;2023-01-13T07:16:28;95527.84;;;-16.39
70415;BMP280;57837;52.064;113.478;2023-01-13T07:19:32;95535.56;;;-16.28
70415;BMP280;57837;52.064;113.478;2023-01-13T07:22:36;95519.81;;;-16.34
70415;BMP280;57837;52.064;113.478;2023-01-13T07:25:40;95520.25;;;-16.44
70415;BMP280;57837;52.064;113.478;2023-01-13T07:28:44;95521.38;;;-16.40
70415;BMP280;57837;52.064;113.478;2023-01-13T07:31:48;95522.44;;;-16.29
70415;BMP280;57837;52.064;113.478;2023-01-13T07:34:52;95514.19;;;-16.23
70415;BMP280;57837;52.064;113.478;2023-01-13T07:37:55;95512.63;;;-16.42
70415;BMP280;57837;52.064;113.478;2023-01-13T07:40:59;95512.72;;;-16.49
70415;BMP280;57837;52.064;113.478;2023-01-13T07:44:23;95515.69;;;-16.65
70415;BMP280;57837;52.064;113.478;2023-01-13T07:47:27;95513.81;;;-16.70
70415;BMP280;57837;52.064;113.478;2023-01-13T07:50:31;95510.44;;;-16.75
70415;BMP280;57837;52.064;113.478;2023-01-13T07:53:35;95513.38;;;-16.67
70415;BMP280;57837;52.064;113.478;2023-01-13T07:56:39;95513.91;;;-16.58
70415;BMP280;57837;52.064;113.478;2023-01-13T07:59:43;95513.97;;;-16.65
70415;BMP280;57837;52.064;113.478;2023-01-13T08:02:46;95507.00;;;-16.74
70415;BMP280;57837;52.064;113.478;2023-01-13T08:05:50;95506.53;;;-16.89
70415;BMP280;57837;52.064;113.478;2023-01-13T08:08:53;95514.72;;;-16.89
70415;BMP280;57837;52.064;113.478;2023-01-13T08:11:57;95517.03;;;-16.94
70415;BMP280;57837;52.064;113.478;2023-01-13T08:15:18;95509.00;;;-16.89
70415;BMP280;57837;52.064;113.478;2023-01-13T08:18:21;95510.56;;;-16.95
70415;BMP280;57837;52.064;113.478;2023-01-13T08:21:24;95510.53;;;-17.20
70415;BMP280;57837;52.064;113.478;2023-01-13T08:24:27;95510.38;;;-17.25
70415;BMP280;57837;52.064;113.478;2023-01-13T08:27:31;95504.16;;;-17.34
70415;BMP280;57837;52.064;113.478;2023-01-13T08:30:34;95514.03;;;-17.28
70415;BMP280;57837;52.064;113.478;2023-01-13T08:33:39;95511.56;;;-17.28
70415;BMP280;57837;52.064;113.478;2023-01-13T08:36:43;95512.78;;;-17.50
70415;BMP280;57837;52.064;113.478;2023-01-13T08:39:47;95524.84;;;-17.67
70415;BMP280;57837;52.064;113.478;2023-01-13T08:42:51;95512.09;;;-17.77
70415;BMP280;57837;52.064;113.478;2023-01-13T08:46:01;95514.44;;;-17.89
70415;BMP280;57837;52.064;113.478;2023-01-13T08:49:07;95515.59;;;-17.98
70415;BMP280;57837;52.064;113.478;2023-01-13T08:52:11;95520.97;;;-18.14
70415;BMP280;57837;52.064;113.478;2023-01-13T08:55:16;95517.56;;;-18.13
70415;BMP280;57837;52.064;113.478;2023-01-13T08:58:18;95513.56;;;-18.28
70415;BMP280;57837;52.064;113.478;2023-01-13T09:01:23;95521.16;;;-18.36
70415;BMP280;57837;52.064;113.478;2023-01-13T09:04:28;95510.38;;;-18.41
70415;BMP280;57837;52.064;113.478;2023-01-13T09:07:33;95511.50;;;-18.37
70415;BMP280;57837;52.064;113.478;2023-01-13T09:10:36;95521.97;;;-18.48
70415;BMP280;57837;52.064;113.478;2023-01-13T09:13:59;95518.31;;;-18.59
70415;BMP280;57837;52.064;113.478;2023-01-13T09:17:04;95509.44;;;-18.54
70415;BMP280;57837;52.064;113.478;2023-01-13T09:20:09;95510.00;;;-18.52
70415;BMP280;57837;52.064;113.478;2023-01-13T09:23:13;95511.88;;;-18.60
70415;BMP280;57837;52.064;113.478;2023-01-13T09:26:19;95522.69;;;-18.61
70415;BMP280;57837;52.064;113.478;2023-01-13T09:29:23;95515.50;;;-18.69
70415;BMP280;57837;52.064;113.478;2023-01-13T09:32:27;95522.50;;;-18.60
70415;BMP280;57837;52.064;113.478;2023-01-13T09:35:31;95516.81;;;-18.60
70415;BMP280;57837;52.064;113.478;2023-01-13T09:38:34;95521.56;;;-18.59
70415;BMP280;57837;52.064;113.478;2023-01-13T09:41:43;95510.97;;;-18.66
70415;BMP280;57837;52.064;113.478;2023-01-13T09:45:13;95511.13;;;-18.81
70415;BMP280;57837;52.064;113.478;2023-01-13T09:48:19;95515.09;;;-18.86
70415;BMP280;57837;52.064;113.478;2023-01-13T09:51:36;95519.09;;;-18.85
70415;BMP280;57837;52.064;113.478;2023-01-13T09:54:44;95508.06;;;-18.83
70415;BMP280;57837;52.064;113.478;2023-01-13T09:57:49;95510.72;;;-18.91
70415;BMP280;57837;52.064;113.478;2023-01-13T10:01:26;95511.88;;;-18.93
70415;BMP280;57837;52.064;113.478;2023-01-13T10:04:32;95517.94;;;-18.83
70415;BMP280;57837;52.064;113.478;2023-01-13T10:07:36;95513.19;;;-18.84
70415;BMP280;57837;52.064;113.478;2023-01-13T10:10:47;95513.41;;;-18.86
70415;BMP280;57837;52.064;113.478;2023-01-13T10:13:57;95507.50;;;-18.91
70415;BMP280;57837;52.064;113.478;2023-01-13T10:24:04;95509.41;;;-18.87
70415;BMP280;57837;52.064;113.478;2023-01-13T10:27:23;95508.84;;;-18.89
70415;BMP280;57837;52.064;113.478;2023-01-13T10:30:35;95515.47;;;-18.89
70415;BMP280;57837;52.064;113.478;2023-01-13T10:33:40;95508.66;;;-18.94
70415;BMP280;57837;52.064;113.478;2023-01-13T10:36:54;95510.72;;;-18.91
70415;BMP280;57837;52.064;113.478;2023-01-13T10:40:17;95519.66;;;-18.90
70415;BMP280;57837;52.064;113.478;2023-01-13T10:43:20;95508.81;;;-19.02
70415;BMP280;57837;52.064;113.478;2023-01-13T10:46:25;95522.50;;;-18.93
70415;BMP280;57837;52.064;113.478;2023-01-13T10:49:31;95519.28;;;-18.93
70415;BMP280;57837;52.064;113.478;2023-01-13T10:52:38;95511.69;;;-18.98
70415;BMP280;57837;52.064;113.478;2023-01-13T10:55:58;95520.75;;;-19.12
70415;BMP280;57837;52.064;113.478;2023-01-13T10:59:20;95521.88;;;-19.21
70415;BMP280;57837;52.064;113.478;2023-01-13T11:02:28;95525.13;;;-19.21
70415;BMP280;57837;52.064;113.478;2023-01-13T11:05:32;95518.66;;;-19.22
70415;BMP280;57837;52.064;113.478;2023-01-13T11:08:44;95518.63;;;-19.28
70415;BMP280;57837;52.064;113.478;2023-01-13T11:11:48;95514.66;;;-19.23
70415;BMP280;57837;52.064;113.478;2023-01-13T11:15:03;95508.41;;;-19.19
70415;BMP280;57837;52.064;113.478;2023-01-13T11:18:38;95519.78;;;-19.11
70415;BMP280;57837;52.064;113.478;2023-01-13T11:22:01;95522.81;;;-19.16
70415;BMP280;57837;52.064;113.478;2023-01-13T11:25:11;95508.78;;;-19.28
70415;BMP280;57837;52.064;113.478;2023-01-13T11:28:34;95512.72;;;-19.41
70415;BMP280;57837;52.064;113.478;2023-01-13T11:31:45;95520.56;;;-19.72
70415;BMP280;57837;52.064;113.478;2023-01-13T11:34:59;95519.09;;;-19.94
70415;BMP280;57837;52.064;113.478;2023-01-13T11:38:12;95522.03;;;-20.12
70415;BMP280;57837;52.064;113.478;2023-01-13T11:44:37;95509.13;;;-20.49
70415;BMP280;57837;52.064;113.478;2023-01-13T11:47:48;95511.13;;;-20.59
70415;BMP280;57837;52.064;113.478;2023-01-13T11:51:02;95515.47;;;-20.54
70415;BMP280;57837;52.064;113.478;2023-01-13T12:04:28;95504.97;;;-20.70
70415;BMP280;57837;52.064;113.478;2023-01-13T12:07:56;95516.41;;;-20.62
70415;BMP280;57837;52.064;113.478;2023-01-13T12:11:09;95503.59;;;-20.57
70415;BMP280;57837;52.064;113.478;2023-01-13T12:14:29;95502.41;;;-20.55
70415;BMP280;57837;52.064;113.478;2023-01-13T12:27:57;95501.31;;;-20.24
70415;BMP280;57837;52.064;113.478;2023-01-13T12:31:02;95503.91;;;-20.11
70415;BMP280;57837;52.064;113.478;2023-01-13T12:43:57;95492.63;;;-19.92
70415;BMP280;57837;52.064;113.478;2023-01-13T12:47:40;95478.59;;;-19.92
70415;BMP280;57837;52.064;113.478;2023-01-13T12:50:57;95477.97;;;-20.00
70415;BMP280;57837;52.064;113.478;2023-01-13T12:57:32;95467.38;;;-20.01
70415;BMP280;57837;52.064;113.478;2023-01-13T13:04:06;95463.22;;;-20.07
70415;BMP280;57837;52.064;113.478;2023-01-13T13:07:23;95463.47;;;-20.23
70415;BMP280;57837;52.064;113.478;2023-01-13T13:10:35;95466.56;;;-20.43
70415;BMP280;57837;52.064;113.478;2023-01-13T13:13:44;95458.16;;;-20.61
70415;BMP280;57837;52.064;113.478;2023-01-13T13:16:51;95463.31;;;-20.78
70415;BMP280;57837;52.064;113.478;2023-01-13T13:19:55;95457.03;;;-20.80
70415;BMP280;57837;52.064;113.478;2023-01-13T13:23:00;95457.25;;;-20.75
70415;BMP280;57837;52.064;113.478;2023-01-13T13:26:17;95452.75;;;-20.72
70415;BMP280;57837;52.064;113.478;2023-01-13T13:29:46;95451.53;;;-20.61
70415;BMP280;57837;52.064;113.478;2023-01-13T13:36:48;95451.50;;;-20.33
70415;BMP280;57837;52.064;113.478;2023-01-13T13:39:53;95438.53;;;-20.48
70415;BMP280;57837;52.064;113.478;2023-01-13T13:43:15;95449.47;;;-20.51
70415;BMP280;57837;52.064;113.478;2023-01-13T13:46:44;95435.63;;;-20.58
70415;BMP280;57837;52.064;113.478;2023-01-13T13:49:51;95436.25;;;-20.50
70415;BMP280;57837;52.064;113.478;2023-01-13T13:53:02;95432.81;;;-20.55
70415;BMP280;57837;52.064;113.478;2023-01-13T13:56:16;95433.22;;;-20.52
70415;BMP280;57837;52.064;113.478;2023-01-13T13:59:24;95437.94;;;-20.57
70415;BMP280;57837;52.064;113.478;2023-01-13T14:02:32;95431.09;;;-20.55
70415;BMP280;57837;52.064;113.478;2023-01-13T14:05:37;95430.81;;;-20.73
70415;BMP280;57837;52.064;113.478;2023-01-13T14:08:40;95426.78;;;-20.81
70415;BMP280;57837;52.064;113.478;2023-01-13T14:15:02;95432.59;;;-20.89
70415;BMP280;57837;52.064;113.478;2023-01-13T14:18:12;95422.94;;;-20.90
70415;BMP280;57837;52.064;113.478;2023-01-13T14:21:21;95414.59;;;-20.96
70415;BMP280;57837;52.064;113.478;2023-01-13T14:24:26;95421.97;;;-20.96
70415;BMP280;57837;52.064;113.478;2023-01-13T14:27:31;95425.28;;;-21.03
70415;BMP280;57837;52.064;113.478;2023-01-13T14:30:36;95415.28;;;-21.02
70415;BMP280;57837;52.064;113.478;2023-01-13T14:33:48;95420.94;;;-21.01
70415;BMP280;57837;52.064;113.478;2023-01-13T14:36:53;95419.03;;;-21.06
70415;BMP280;57837;52.064;113.478;2023-01-13T14:39:57;95417.50;;;-21.07
70415;BMP280;57837;52.064;113.478;2023-01-13T14:43:13;95413.16;;;-21.11
70415;BMP280;57837;52.064;113.478;2023-01-13T14:46:19;95410.03;;;-21.20
70415;BMP280;57837;52.064;113.478;2023-01-13T14:49:37;95413.38;;;-21.28
70415;BMP280;57837;52.064;113.478;2023-01-13T14:52:51;95404.78;;;-21.38
70415;BMP280;57837;52.064;113.478;2023-01-13T14:55:59;95407.69;;;-21.28
70415;BMP280;57837;52.064;113.478;2023-01-13T15:02:38;95405.91;;;-21.34
70415;BMP280;57837;52.064;113.478;2023-01-13T15:05:45;95401.56;;;-21.39
70415;BMP280;57837;52.064;113.478;2023-01-13T15:08:52;95396.06;;;-21.41
70415;BMP280;57837;52.064;113.478;2023-01-13T15:12:15;95399.81;;;-21.45
70415;BMP280;57837;52.064;113.478;2023-01-13T15:15:35;95403.16;;;-21.68
70415;BMP280;57837;52.064;113.478;2023-01-13T15:18:39;95398.13;;;-21.81
70415;BMP280;57837;52.064;113.478;2023-01-13T15:21:43;95392.22;;;-21.65
70415;BMP280;57837;52.064;113.478;2023-01-13T15:24:48;95381.88;;;-21.60
70415;BMP280;57837;52.064;113.478;2023-01-13T15:27:52;95377.22;;;-21.55
70415;BMP280;57837;52.064;113.478;2023-01-13T15:30:56;95376.78;;;-21.59
70415;BMP280;57837;52.064;113.478;2023-01-13T15:34:06;95377.91;;;-21.61
70415;BMP280;57837;52.064;113.478;2023-01-13T15:37:10;95384.66;;;-21.49
70415;BMP280;57837;52.064;113.478;2023-01-13T15:43:22;95377.88;;;-21.47
70415;BMP280;57837;52.064;113.478;2023-01-13T15:46:44;95373.38;;;-21.43
70415;BMP280;57837;52.064;113.478;2023-01-13T15:49:48;95375.81;;;-21.43
70415;BMP280;57837;52.064;113.478;2023-01-13T15:52:52;95370.91;;;-21.43
70415;BMP280;57837;52.064;113.478;2023-01-13T15:55:57;95368.66;;;-21.38
70415;BMP280;57837;52.064;113.478;2023-01-13T15:59:03;95371.38;;;-21.33
70415;BMP280;57837;52.064;113.478;2023-01-13T16:02:16;95363.47;;;-21.28
70415;BMP280;57837;52.064;113.478;2023-01-13T16:05:25;95360.56;;;-21.10
70415;BMP280;57837;52.064;113.478;2023-01-13T16:08:29;95357.31;;;-21.18
70415;BMP280;57837;52.064;113.478;2023-01-13T16:11:33;95355.88;;;-21.12
70415;BMP280;57837;52.064;113.478;2023-01-13T16:14:37;95347.50;;;-21.18
70415;BMP280;57837;52.064;113.478;2023-01-13T16:17:42;95344.97;;;-21.03
70415;BMP280;57837;52.064;113.478;2023-01-13T16:20:47;95352.31;;;-21.03
70415;BMP280;57837;52.064;113.478;2023-01-13T16:23:55;95340.66;;;-20.94
70415;BMP280;57837;52.064;113.478;2023-01-13T16:26:58;95347.69;;;-20.91
70415;BMP280;57837;52.064;113.478;2023-01-13T16:30:02;95337.72;;;-20.83
70415;BMP280;57837;52.064;113.478;2023-01-13T16:33:05;95330.13;;;-20.88
70415;BMP280;57837;52.064;113.478;2023-01-13T16:36:18;95333.75;;;-20.84
70415;BMP280;57837;52.064;113.478;2023-01-13T16:39:21;95326.16;;;-20.89
70415;BMP280;57837;52.064;113.478;2023-01-13T16:42:28;95327.84;;;-20.90
70415;BMP280;57837;52.064;113.478;2023-01-13T16:45:32;95316.91;;;-20.80
70415;BMP280;57837;52.064;113.478;2023-01-13T16:48:36;95314.91;;;-20.70
70415;BMP280;57837;52.064;113.478;2023-01-13T16:51:41;95307.34;;;-20.69
70415;BMP280;57837;52.064;113.478;2023-01-13T16:54:46;95308.84;;;-20.74
70415;BMP280;57837;52.064;113.478;2023-01-13T16:57:49;95316.63;;;-20.71
70415;BMP280;57837;52.064;113.478;2023-01-13T17:00:53;95316.63;;;-20.71
70415;BMP280;57837;52.064;113.478;2023-01-13T17:03:57;95317.91;;;-20.75
70415;BMP280;57837;52.064;113.478;2023-01-13T17:07:05;95318.06;;;-20.76
70415;BMP280;57837;52.064;113.478;2023-01-13T17:10:15;95319.00;;;-20.84
70415;BMP280;57837;52.064;113.478;2023-01-13T17:13:20;95317.25;;;-20.90
70415;BMP280;57837;52.064;113.478;2023-01-13T17:16:24;95313.09;;;-20.90
70415;BMP280;57837;52.064;113.478;2023-01-13T17:19:28;95310.06;;;-20.92
70415;BMP280;57837;52.064;113.478;2023-01-13T17:22:32;95316.84;;;-20.94
70415;BMP280;57837;52.064;113.478;2023-01-13T17:25:36;95312.78;;;-21.08
70415;BMP280;57837;52.064;113.478;2023-01-13T17:28:44;95306.34;;;-21.16
70415;BMP280;57837;52.064;113.478;2023-01-13T17:31:49;95308.69;;;-21.29
70415;BMP280;57837;52.064;113.478;2023-01-13T17:34:53;95303.22;;;-21.52
70415;BMP280;57837;52.064;113.478;2023-01-13T17:37:57;95301.88;;;-21.55
70415;BMP280;57837;52.064;113.478;2023-01-13T17:41:02;95304.44;;;-21.63
70415;BMP280;57837;52.064;113.478;2023-01-13T17:44:08;95295.50;;;-21.71
70415;BMP280;57837;52.064;113.478;2023-01-13T17:47:12;95289.78;;;-21.78
70415;BMP280;57837;52.064;113.478;2023-01-13T17:50:16;95297.66;;;-21.82
70415;BMP280;57837;52.064;113.478;2023-01-13T17:53:20;95283.34;;;-22.00
70415;BMP280;57837;52.064;113.478;2023-01-13T17:56:24;95285.91;;;-22.08
70415;BMP280;57837;52.064;113.478;2023-01-13T17:59:28;95281.44;;;-22.20
70415;BMP280;57837;52.064;113.478;2023-01-13T18:02:32;95278.34;;;-22.28
70415;BMP280;57837;52.064;113.478;2023-01-13T18:05:36;95269.97;;;-22.34
70415;BMP280;57837;52.064;113.478;2023-01-13T18:08:41;95270.69;;;-22.40
70415;BMP280;57837;52.064;113.478;2023-01-13T18:11:44;95271.94;;;-22.44
70415;BMP280;57837;52.064;113.478;2023-01-13T18:14:49;95272.97;;;-22.53
70415;BMP280;57837;52.064;113.478;2023-01-13T18:17:52;95269.34;;;-22.57
70415;BMP280;57837;52.064;113.478;2023-01-13T18:20:56;95266.66;;;-22.62
70415;BMP280;57837;52.064;113.478;2023-01-13T18:24:19;95256.94;;;-22.71
70415;BMP280;57837;52.064;113.478;2023-01-13T18:27:41;95252.91;;;-22.78
70415;BMP280;57837;52.064;113.478;2023-01-13T18:30:44;95251.22;;;-22.78
70415;BMP280;57837;52.064;113.478;2023-01-13T18:33:48;95241.16;;;-22.83
70415;BMP280;57837;52.064;113.478;2023-01-13T18:36:52;95237.50;;;-22.87
70415;BMP280;57837;52.064;113.478;2023-01-13T18:39:56;95239.63;;;-22.84
70415;BMP280;57837;52.064;113.478;2023-01-13T18:43:00;95237.44;;;-22.79
70415;BMP280;57837;52.064;113.478;2023-01-13T18:46:04;95234.22;;;-22.79
70415;BMP280;57837;52.064;113.478;2023-01-13T18:49:07;95235.78;;;-22.72
70415;BMP280;57837;52.064;113.478;2023-01-13T18:52:11;95229.28;;;-22.64